createdAt,value
2017-08-10T00:00:01.978Z,13.5
2017-08-10T00:05:01.239Z,13.5
2017-08-10T00:10:01.985Z,13.5
2017-08-10T00:15:01.632Z,13.5
2017-08-10T00:20:01.408Z,13.4
2017-08-10T00:25:01.838Z,13.4
2017-08-10T00:30:01.594Z,13.3
2017-08-10T00:35:01.653Z,13.3
2017-08-10T00:40:01.392Z,13.3
2017-08-10T00:45:01.655Z,13.2
2017-08-10T00:50:01.437Z,13.1
2017-08-10T00:55:01.643Z,13.1
2017-08-10T01:00:01.401Z,13
2017-08-10T01:05:01.752Z,12.9
2017-08-10T01:10:01.584Z,12.8
2017-08-10T01:15:01.497Z,12.8
2017-08-10T01:20:01.257Z,12.8
2017-08-10T01:25:02.122Z,12.7
2017-08-10T01:30:01.876Z,12.7
2017-08-10T01:35:01.267Z,12.7
2017-08-10T01:40:01.967Z,12.7
2017-08-10T01:45:01.847Z,12.7
2017-08-10T01:50:01.630Z,12.6
2017-08-10T01:55:01.306Z,12.6
2017-08-10T02:00:01.306Z,12.6
2017-08-10T02:05:02.073Z,12.5
2017-08-10T02:10:02.064Z,12.5
2017-08-10T02:15:01.949Z,12.5
2017-08-10T02:20:01.752Z,12.5
2017-08-10T02:25:01.948Z,12.4
2017-08-10T02:30:01.441Z,12.4
2017-08-10T02:35:01.857Z,12.4
2017-08-10T02:40:02.145Z,12.4
2017-08-10T02:45:01.808Z,12.3
2017-08-10T02:50:01.622Z,12.3
2017-08-10T02:55:01.623Z,12.2
2017-08-10T03:00:01.670Z,12.1
2017-08-10T03:05:01.254Z,12.1
2017-08-10T03:10:02.029Z,12
2017-08-10T03:15:01.409Z,11.9
2017-08-10T03:20:01.943Z,11.9
2017-08-10T03:25:01.586Z,11.9
2017-08-10T03:30:01.653Z,11.8
2017-08-10T03:35:01.920Z,11.7
2017-08-10T03:40:01.918Z,11.7
2017-08-10T03:45:02.042Z,11.6
2017-08-10T03:50:02.088Z,11.6
2017-08-10T03:55:01.393Z,11.6
2017-08-10T04:00:01.441Z,11.6
2017-08-10T04:05:01.789Z,11.6
2017-08-10T04:10:01.656Z,11.6
2017-08-10T04:15:01.446Z,11.6
2017-08-10T04:20:01.220Z,11.6
2017-08-10T04:25:01.285Z,11.6
2017-08-10T04:30:01.392Z,11.6
2017-08-10T04:35:01.755Z,11.6
2017-08-10T04:40:01.692Z,11.6
2017-08-10T04:45:01.829Z,11.6
2017-08-10T04:50:02.053Z,11.6
2017-08-10T04:55:02.834Z,11.6
2017-08-10T05:00:01.804Z,11.6
2017-08-10T05:05:01.752Z,11.6
2017-08-10T05:10:01.756Z,11.7
2017-08-10T05:15:01.598Z,11.7
2017-08-10T05:20:01.981Z,11.7
2017-08-10T05:25:01.610Z,11.7
2017-08-10T05:30:01.864Z,12.2
2017-08-10T05:35:01.852Z,12.2
2017-08-10T05:40:01.642Z,12.2
2017-08-10T05:45:01.849Z,12.2
2017-08-10T05:50:01.921Z,13.1
2017-08-10T05:55:01.218Z,13.1
2017-08-10T06:00:01.448Z,13.6
2017-08-10T06:05:01.588Z,13.7
2017-08-10T06:10:02.071Z,13.7
2017-08-10T06:15:02.004Z,13.7
2017-08-10T06:20:01.708Z,14.4
2017-08-10T06:25:01.429Z,14.7
2017-08-10T06:30:02.148Z,15
2017-08-10T06:35:01.511Z,15
2017-08-10T06:40:01.253Z,15
2017-08-10T06:45:02.126Z,15.6
2017-08-10T06:50:02.015Z,15.6
2017-08-10T06:55:01.631Z,15.6
2017-08-10T07:00:01.685Z,15.6
2017-08-10T07:05:02.091Z,15.6
2017-08-10T07:10:02.146Z,15.6
2017-08-10T07:15:02.040Z,16.8
2017-08-10T07:20:01.752Z,17.1
2017-08-10T07:25:01.669Z,17.1
2017-08-10T07:30:01.733Z,17.2
2017-08-10T07:35:01.563Z,17.4
2017-08-10T07:40:01.297Z,17.6
2017-08-10T07:45:02.077Z,17.6
2017-08-10T07:50:02.085Z,17.7
2017-08-10T07:55:01.829Z,18
2017-08-10T08:00:01.935Z,18
2017-08-10T08:05:01.391Z,18
2017-08-10T08:10:01.247Z,18.5
2017-08-10T08:15:01.809Z,18.7
2017-08-10T08:20:01.467Z,18.9
2017-08-10T08:25:01.910Z,18.9
2017-08-10T08:30:01.931Z,18.9
2017-08-10T08:35:01.637Z,19.4
2017-08-10T08:40:01.342Z,19.7
2017-08-10T08:45:01.935Z,20
2017-08-10T08:50:02.015Z,20
2017-08-10T08:55:02.055Z,20
2017-08-10T09:00:01.811Z,20.5
2017-08-10T09:05:01.647Z,20.5
2017-08-10T09:10:01.713Z,20.5
2017-08-10T09:15:01.875Z,20.5
2017-08-10T09:20:01.599Z,20.5
2017-08-10T09:25:01.404Z,20.2
2017-08-10T09:30:01.755Z,20.1
2017-08-10T09:35:01.348Z,20.1
2017-08-10T09:40:02.173Z,20.1
2017-08-10T09:45:01.673Z,20.1
2017-08-10T09:50:01.619Z,20.1
2017-08-10T09:55:02.028Z,20.2
2017-08-10T10:00:01.374Z,20.2
2017-08-10T10:05:01.811Z,20.2
2017-08-10T10:10:01.679Z,20.2
2017-08-10T10:15:02.128Z,20.4
2017-08-10T10:20:01.742Z,20.6
2017-08-10T10:25:01.423Z,20.6
2017-08-10T10:30:01.739Z,20.6
2017-08-10T10:35:01.827Z,20.9
2017-08-10T10:40:01.547Z,20.9
2017-08-10T10:45:02.160Z,20.9
2017-08-10T10:50:02.171Z,20.9
2017-08-10T10:55:01.557Z,21
2017-08-10T11:00:01.909Z,21
2017-08-10T11:05:02.018Z,21
2017-08-10T11:10:01.906Z,21
2017-08-10T11:15:01.776Z,21.1
2017-08-10T11:20:01.514Z,21.1
2017-08-10T11:25:01.645Z,21
2017-08-10T11:30:01.917Z,21
2017-08-10T11:35:01.860Z,21
2017-08-10T11:40:01.599Z,21
2017-08-10T11:45:01.277Z,21
2017-08-10T11:50:01.273Z,21
2017-08-10T11:55:01.774Z,21
2017-08-10T12:00:01.319Z,20.8
2017-08-10T12:05:02.109Z,20.8
2017-08-10T12:10:01.941Z,20.8
2017-08-10T12:15:01.464Z,20.7
2017-08-10T12:20:01.228Z,20.7
2017-08-10T12:25:01.539Z,20.7
2017-08-10T12:30:01.917Z,20.7
2017-08-10T12:35:01.379Z,20.7
2017-08-10T12:40:01.238Z,20.7
2017-08-10T12:45:01.428Z,20.7
2017-08-10T12:50:01.372Z,20.7
2017-08-10T12:55:02.077Z,20.7
2017-08-10T13:00:01.412Z,20.6
2017-08-10T13:05:01.560Z,20.7
2017-08-10T13:10:01.322Z,20.7
2017-08-10T13:15:01.263Z,20.7
2017-08-10T13:20:01.212Z,20.9
2017-08-10T13:25:01.408Z,20.9
2017-08-10T13:30:01.359Z,20.9
2017-08-10T13:35:01.661Z,21
2017-08-10T13:40:02.594Z,20.9
2017-08-10T13:45:01.789Z,20.9
2017-08-10T13:50:02.170Z,20.9
2017-08-10T13:55:02.127Z,20.8
2017-08-10T14:00:02.159Z,20.8
2017-08-10T14:05:01.619Z,20.8
2017-08-10T14:10:02.022Z,20.7
2017-08-10T14:15:01.229Z,20.7
2017-08-10T14:20:01.970Z,20.5
2017-08-10T14:25:01.800Z,20.4
2017-08-10T14:30:01.776Z,20.4
2017-08-10T14:35:01.366Z,20.3
2017-08-10T14:40:01.292Z,20.3
2017-08-10T14:45:01.932Z,20.2
2017-08-10T14:50:01.894Z,20.2
2017-08-10T14:55:01.632Z,20
2017-08-10T15:00:01.702Z,20
2017-08-10T15:05:01.682Z,20
2017-08-10T15:10:01.636Z,19.9
2017-08-10T15:15:01.837Z,19.9
2017-08-10T15:20:01.546Z,19.9
2017-08-10T15:25:02.213Z,19.9
2017-08-10T15:30:01.178Z,19.8
2017-08-10T15:35:01.876Z,19.8
2017-08-10T15:40:01.668Z,19.8
2017-08-10T15:45:01.909Z,19.8
2017-08-10T15:50:01.845Z,19.8
2017-08-10T15:55:01.608Z,19.8
2017-08-10T16:00:01.618Z,19.8
2017-08-10T16:05:02.142Z,19.8
2017-08-10T16:10:01.901Z,19.9
2017-08-10T16:15:01.945Z,19.9
2017-08-10T16:20:01.631Z,19.9
2017-08-10T16:25:01.790Z,19.8
2017-08-10T16:30:01.859Z,19.8
2017-08-10T16:35:01.349Z,19.7
2017-08-10T16:40:02.141Z,19.7
2017-08-10T16:45:01.886Z,19.7
2017-08-10T16:50:01.828Z,19.5
2017-08-10T16:55:01.379Z,19.5
2017-08-10T17:00:01.475Z,19.5
2017-08-10T17:05:01.480Z,19.5
2017-08-10T17:10:02.051Z,19.4
2017-08-10T17:15:01.524Z,19.4
2017-08-10T17:20:01.733Z,19.4
2017-08-10T17:25:01.511Z,19.3
2017-08-10T17:30:01.882Z,19.2
2017-08-10T17:35:01.727Z,19.2
2017-08-10T17:40:02.079Z,19.2
2017-08-10T17:45:01.933Z,19.2
2017-08-10T17:50:02.138Z,19.2
2017-08-10T17:55:01.930Z,19.2
2017-08-10T18:00:01.430Z,19
2017-08-10T18:05:02.083Z,19
2017-08-10T18:10:02.041Z,19
2017-08-10T18:15:02.136Z,19
2017-08-10T18:20:01.852Z,19
2017-08-10T18:25:01.455Z,18.8
2017-08-10T18:30:01.561Z,18.8
2017-08-10T18:35:01.930Z,18.7
2017-08-10T18:40:01.742Z,18.7
2017-08-10T18:45:01.381Z,18.7
2017-08-10T18:50:01.551Z,18.7
2017-08-10T18:55:01.296Z,18.7
2017-08-10T19:00:01.428Z,18.4
2017-08-10T19:05:01.296Z,18.3
2017-08-10T19:10:01.305Z,18.2
2017-08-10T19:15:01.754Z,18.2
2017-08-10T19:20:02.064Z,18.1
2017-08-10T19:25:01.608Z,18
2017-08-10T19:30:01.717Z,18
2017-08-10T19:35:01.753Z,17.9
2017-08-10T19:40:01.520Z,17.9
2017-08-10T19:45:01.971Z,17.8
2017-08-10T19:50:01.641Z,17.8
2017-08-10T19:55:02.559Z,17.8
2017-08-10T20:00:01.574Z,17.7
2017-08-10T20:05:02.150Z,17.7
2017-08-10T20:10:02.049Z,17.6
2017-08-10T20:15:01.840Z,17.5
2017-08-10T20:20:01.810Z,17.4
2017-08-10T20:25:01.943Z,17.4
2017-08-10T20:30:02.098Z,17.2
2017-08-10T20:35:01.722Z,17.2
2017-08-10T20:40:01.669Z,17.1
2017-08-10T20:45:01.323Z,17
2017-08-10T20:50:02.017Z,17
2017-08-10T20:55:02.005Z,16.9
2017-08-10T21:00:01.197Z,16.8
2017-08-10T21:05:01.462Z,16.8
2017-08-10T21:10:01.235Z,16.7
2017-08-10T21:15:02.045Z,16.7
2017-08-10T21:20:02.073Z,16.6
2017-08-10T21:25:02.125Z,16.6
2017-08-10T21:30:01.233Z,16.5
2017-08-10T21:35:02.133Z,16.4
2017-08-10T21:40:01.995Z,16.4
2017-08-10T21:45:01.297Z,16.2
2017-08-10T21:50:01.983Z,16.1
2017-08-10T21:55:01.697Z,16.1
2017-08-10T22:00:01.808Z,16
2017-08-10T22:05:01.650Z,15.9
2017-08-10T22:10:01.872Z,15.9
2017-08-10T22:15:01.907Z,15.8
2017-08-10T22:20:01.669Z,15.7
2017-08-10T22:25:01.237Z,15.7
2017-08-10T22:30:02.015Z,15.7
2017-08-10T22:35:01.477Z,15.6
2017-08-10T22:40:01.380Z,15.6
2017-08-10T22:45:01.669Z,15.6
2017-08-10T22:50:01.391Z,15.5
2017-08-10T22:55:01.736Z,15.4
2017-08-10T23:00:01.461Z,15.4
2017-08-10T23:05:02.184Z,15.2
2017-08-10T23:10:01.904Z,15
2017-08-10T23:15:01.789Z,15
2017-08-10T23:20:01.534Z,15
2017-08-10T23:25:01.945Z,15
2017-08-10T23:30:01.738Z,15
2017-08-10T23:35:01.691Z,15
2017-08-10T23:40:01.400Z,15
2017-08-10T23:45:01.437Z,15
2017-08-10T23:50:02.076Z,15
2017-08-10T23:55:01.642Z,15
